This is the latest recevied weather packets stored in our database for station/object IQ5KG. If no packets are shown the sender has not sent any weather packets the latest 10 day(s).
| Time | Temp. | Humidity | Pressure | Rain* | Wind** | Luminosity | Snow |
|---|---|---|---|---|---|---|---|
| 1777701754 | 14.44° C | 46% | 1026.3 hPa | 0 mm | - | - | - |
| 1777700854 | 13.89° C | 47% | 1026 hPa | 0 mm | - | - | - |
| 1777699954 | 12.78° C | 54% | 1026.1 hPa | 0 mm | - | - | - |
| 1777699053 | 12.22° C | 52% | 1026.1 hPa | 0 mm | - | - | - |
| 1777698154 | 12.22° C | 53% | 1026 hPa | 0 mm | - | - | - |
| 1777697253 | 12.78° C | 49% | 1025.9 hPa | 0 mm | - | - | - |
| 1777696353 | 12.22° C | 51% | 1026 hPa | 0 mm | - | - | - |
| 1777695453 | 12.78° C | 45% | 1025.7 hPa | 0 mm | - | - | - |
| 1777694553 | 12.78° C | 45% | 1025.9 hPa | 0 mm | - | - | - |
| 1777693653 | 12.78° C | 44% | 1025.9 hPa | 0 mm | - | - | - |
| 1777692753 | 12.78° C | 43% | 1025.8 hPa | 0 mm | - | - | - |
| 1777691854 | 11.67° C | 48% | 1025.9 hPa | 0 mm | - | - | - |
| 1777690954 | 11.11° C | 51% | 1026 hPa | 0 mm | - | - | - |
| 1777690053 | 11.67° C | 51% | 1025.9 hPa | 0 mm | - | - | - |
| 1777689152 | 11.67° C | 50% | 1025.8 hPa | 0 mm | - | - | - |
| 1777688252 | 11.67° C | 50% | 1025.9 hPa | 0 mm | - | - | - |
| 1777687353 | 12.22° C | 48% | 1025.9 hPa | 0 mm | - | - | - |
| 1777686452 | 11.67° C | 47% | 1026 hPa | 0 mm | - | - | - |
| 1777685552 | 12.78° C | 43% | 1026 hPa | 0 mm | - | - | - |
| 1777684652 | 12.78° C | 42% | 1026 hPa | 0 mm | - | - | - |
| 1777683753 | 12.78° C | 42% | 1025.8 hPa | 0 mm | - | - | - |
| 1777682851 | 12.78° C | 43% | 1026 hPa | 0 mm | - | - | - |
| 1777681951 | 12.78° C | 43% | 1026 hPa | 0 mm | - | - | - |
| 1777681052 | 12.78° C | 44% | 1026.3 hPa | 0 mm | - | - | - |
| 1777680150 | 12.78° C | 45% | 1025.9 hPa | 0 mm | - | - | - |
* Rain latest hour (hover to see other rain measurements)
** Current wind speed in m/s (hover to see current wind gust speed)